Hawthorne, Louisiana
Current Conditions -  °F | °C
As of 11:58 AM on Friday 24 Oct 2014 (Local Time) from KPOE Reporting Station
Clear Clear  
Wind Chill: 68°   Ceiling: Unl
Heat Index: 68°   Visibility: 10mi
Dew Point: 48°   Wind: 9mph
Humidity: 48%   Direction: 10°N
Pressure: 30.16"   Gusts: NA
Location:  31.2063°N, 93.1344°W
Report Text: KPOE 241658Z AUTO 01008KT 10SM CLR 20/09 A3016 RMK AO2 SLP214 T02000087
Loading
Personal Weather Stations






























Interactive Weather Map
Tropical Storm Tracking
New forecast layout! Learn more

10-Day Weather Forecast

Advertisements
Track Severe Weather on mobile